Terminal Aerodrome Forecast
Issued by NWS

Home | Current Version | Previous Version | Text Only | Print | Product List | Glossary On
Versions: 1 2 3 4 5 6 7 8 9 10 11 12 13 14 15 16 17 18 19 20 21
000
FTUS42 KMHX 052338
TAFOAJ
TAF
KOAJ 052338Z 0600/0624 30015G25KT 5SM -RA BR SCT007 OVC010
     FM060400 02017G25KT 3SM -RAPL OVC007
     FM060900 01017G25KT P6SM OVC015
     FM061200 01015G23KT P6SM BKN035
     FM061500 02013KT P6SM SCT050
     FM061800 01011KT P6SM SCT035 SCT250
      AMD LTD TO CLD VIS AND WIND=

USA.gov is the U.S. government's official web portal to all federal, state and local government web resources and services.